sensor_id;sensor_type;location;lat;lon;timestamp;P1;durP1;ratioP1;P2;durP2;ratioP2
31990;SDS011;18508;49.386;8.370;2023-02-23T00:01:19;55.20;;;27.27;;
31990;SDS011;18508;49.386;8.370;2023-02-23T00:03:50;49.40;;;25.95;;
31990;SDS011;18508;49.386;8.370;2023-02-23T00:06:27;54.22;;;26.65;;
31990;SDS011;18508;49.386;8.370;2023-02-23T00:09:00;53.10;;;25.13;;
31990;SDS011;18508;49.386;8.370;2023-02-23T00:11:35;55.75;;;24.73;;
31990;SDS011;18508;49.386;8.370;2023-02-23T00:14:11;54.85;;;25.83;;
31990;SDS011;18508;49.386;8.370;2023-02-23T00:16:42;52.83;;;25.38;;
31990;SDS011;18508;49.386;8.370;2023-02-23T00:19:12;52.65;;;24.67;;
31990;SDS011;18508;49.386;8.370;2023-02-23T00:21:43;56.05;;;25.42;;
31990;SDS011;18508;49.386;8.370;2023-02-23T00:24:18;49.72;;;23.92;;
31990;SDS011;18508;49.386;8.370;2023-02-23T00:26:54;51.83;;;24.15;;
31990;SDS011;18508;49.386;8.370;2023-02-23T00:29:34;54.83;;;23.75;;
31990;SDS011;18508;49.386;8.370;2023-02-23T00:32:05;49.58;;;25.40;;
31990;SDS011;18508;49.386;8.370;2023-02-23T00:34:35;50.15;;;23.58;;
31990;SDS011;18508;49.386;8.370;2023-02-23T00:37:08;50.05;;;24.60;;
31990;SDS011;18508;49.386;8.370;2023-02-23T00:39:45;49.85;;;23.35;;
31990;SDS011;18508;49.386;8.370;2023-02-23T00:42:13;53.15;;;24.02;;
31990;SDS011;18508;49.386;8.370;2023-02-23T00:44:44;48.10;;;23.30;;
31990;SDS011;18508;49.386;8.370;2023-02-23T00:47:14;48.03;;;23.40;;
31990;SDS011;18508;49.386;8.370;2023-02-23T00:49:42;53.05;;;24.48;;
31990;SDS011;18508;49.386;8.370;2023-02-23T00:52:12;46.45;;;24.13;;
31990;SDS011;18508;49.386;8.370;2023-02-23T00:54:42;44.30;;;22.75;;
31990;SDS011;18508;49.386;8.370;2023-02-23T00:57:11;46.78;;;23.23;;
31990;SDS011;18508;49.386;8.370;2023-02-23T00:59:43;50.38;;;22.80;;
31990;SDS011;18508;49.386;8.370;2023-02-23T01:02:12;50.45;;;22.58;;
31990;SDS011;18508;49.386;8.370;2023-02-23T01:04:41;45.88;;;22.02;;
31990;SDS011;18508;49.386;8.370;2023-02-23T01:07:09;54.85;;;23.08;;
31990;SDS011;18508;49.386;8.370;2023-02-23T01:09:39;48.80;;;23.42;;
31990;SDS011;18508;49.386;8.370;2023-02-23T01:12:09;45.22;;;22.25;;
31990;SDS011;18508;49.386;8.370;2023-02-23T01:14:38;51.72;;;22.85;;
31990;SDS011;18508;49.386;8.370;2023-02-23T01:17:09;50.75;;;23.67;;
31990;SDS011;18508;49.386;8.370;2023-02-23T01:19:41;54.15;;;24.33;;
31990;SDS011;18508;49.386;8.370;2023-02-23T01:22:12;50.20;;;22.75;;
31990;SDS011;18508;49.386;8.370;2023-02-23T01:24:43;49.05;;;23.65;;
31990;SDS011;18508;49.386;8.370;2023-02-23T01:27:12;54.35;;;23.23;;
31990;SDS011;18508;49.386;8.370;2023-02-23T01:29:42;55.63;;;24.52;;
31990;SDS011;18508;49.386;8.370;2023-02-23T01:32:16;55.05;;;23.17;;
31990;SDS011;18508;49.386;8.370;2023-02-23T01:34:47;53.13;;;23.48;;
31990;SDS011;18508;49.386;8.370;2023-02-23T01:37:15;52.47;;;23.77;;
31990;SDS011;18508;49.386;8.370;2023-02-23T01:39:44;48.25;;;24.52;;
31990;SDS011;18508;49.386;8.370;2023-02-23T01:42:13;49.78;;;24.80;;
31990;SDS011;18508;49.386;8.370;2023-02-23T01:48:03;52.17;;;23.85;;
31990;SDS011;18508;49.386;8.370;2023-02-23T01:50:39;51.28;;;22.50;;
31990;SDS011;18508;49.386;8.370;2023-02-23T01:53:13;52.42;;;23.15;;
31990;SDS011;18508;49.386;8.370;2023-02-23T01:55:42;51.00;;;23.92;;
31990;SDS011;18508;49.386;8.370;2023-02-23T01:58:15;56.65;;;23.85;;
31990;SDS011;18508;49.386;8.370;2023-02-23T02:00:46;49.58;;;23.45;;
31990;SDS011;18508;49.386;8.370;2023-02-23T02:03:21;52.70;;;23.58;;
31990;SDS011;18508;49.386;8.370;2023-02-23T02:05:53;54.38;;;23.83;;
31990;SDS011;18508;49.386;8.370;2023-02-23T02:08:27;52.90;;;24.35;;
31990;SDS011;18508;49.386;8.370;2023-02-23T02:10:58;54.40;;;24.48;;
31990;SDS011;18508;49.386;8.370;2023-02-23T02:13:35;48.10;;;24.25;;
31990;SDS011;18508;49.386;8.370;2023-02-23T02:16:10;54.15;;;23.30;;
31990;SDS011;18508;49.386;8.370;2023-02-23T02:19:07;52.10;;;24.02;;
31990;SDS011;18508;49.386;8.370;2023-02-23T02:22:10;55.05;;;24.88;;
31990;SDS011;18508;49.386;8.370;2023-02-23T02:31:21;52.08;;;24.40;;
31990;SDS011;18508;49.386;8.370;2023-02-23T02:34:21;46.00;;;22.77;;
31990;SDS011;18508;49.386;8.370;2023-02-23T02:37:06;49.90;;;23.13;;
31990;SDS011;18508;49.386;8.370;2023-02-23T02:39:41;53.20;;;24.48;;
31990;SDS011;18508;49.386;8.370;2023-02-23T02:42:19;53.20;;;23.60;;
31990;SDS011;18508;49.386;8.370;2023-02-23T02:44:58;49.72;;;23.23;;
31990;SDS011;18508;49.386;8.370;2023-02-23T02:47:37;54.42;;;23.27;;
31990;SDS011;18508;49.386;8.370;2023-02-23T02:50:19;57.60;;;25.45;;
31990;SDS011;18508;49.386;8.370;2023-02-23T02:52:52;58.78;;;24.65;;
31990;SDS011;18508;49.386;8.370;2023-02-23T02:55:28;53.92;;;25.48;;
31990;SDS011;18508;49.386;8.370;2023-02-23T02:58:02;53.85;;;24.17;;
31990;SDS011;18508;49.386;8.370;2023-02-23T03:00:34;58.65;;;25.58;;
31990;SDS011;18508;49.386;8.370;2023-02-23T03:03:28;57.80;;;24.67;;
31990;SDS011;18508;49.386;8.370;2023-02-23T03:06:23;54.67;;;25.48;;
31990;SDS011;18508;49.386;8.370;2023-02-23T03:09:27;58.13;;;26.23;;
31990;SDS011;18508;49.386;8.370;2023-02-23T03:12:24;57.65;;;24.45;;
31990;SDS011;18508;49.386;8.370;2023-02-23T03:15:20;58.85;;;26.25;;
31990;SDS011;18508;49.386;8.370;2023-02-23T03:18:20;59.60;;;25.33;;
31990;SDS011;18508;49.386;8.370;2023-02-23T03:21:21;55.15;;;26.15;;
31990;SDS011;18508;49.386;8.370;2023-02-23T03:24:13;58.63;;;24.48;;
31990;SDS011;18508;49.386;8.370;2023-02-23T03:27:09;61.15;;;26.40;;
31990;SDS011;18508;49.386;8.370;2023-02-23T03:30:05;61.60;;;26.77;;
31990;SDS011;18508;49.386;8.370;2023-02-23T03:32:58;59.33;;;26.52;;
31990;SDS011;18508;49.386;8.370;2023-02-23T03:35:49;59.00;;;27.15;;
31990;SDS011;18508;49.386;8.370;2023-02-23T03:38:41;64.32;;;27.77;;
31990;SDS011;18508;49.386;8.370;2023-02-23T03:41:32;57.28;;;27.27;;
31990;SDS011;18508;49.386;8.370;2023-02-23T03:44:24;67.68;;;27.60;;
31990;SDS011;18508;49.386;8.370;2023-02-23T03:47:14;62.20;;;27.45;;
31990;SDS011;18508;49.386;8.370;2023-02-23T03:50:04;70.50;;;28.58;;
31990;SDS011;18508;49.386;8.370;2023-02-23T03:52:55;63.75;;;28.40;;
31990;SDS011;18508;49.386;8.370;2023-02-23T03:55:44;63.90;;;28.25;;
31990;SDS011;18508;49.386;8.370;2023-02-23T03:58:37;70.05;;;28.10;;
31990;SDS011;18508;49.386;8.370;2023-02-23T04:01:25;62.75;;;28.77;;
31990;SDS011;18508;49.386;8.370;2023-02-23T04:04:13;64.90;;;28.00;;
31990;SDS011;18508;49.386;8.370;2023-02-23T04:07:00;68.53;;;29.98;;
31990;SDS011;18508;49.386;8.370;2023-02-23T04:09:47;67.45;;;30.50;;
31990;SDS011;18508;49.386;8.370;2023-02-23T04:12:36;66.00;;;28.73;;
31990;SDS011;18508;49.386;8.370;2023-02-23T04:15:30;65.35;;;29.27;;
31990;SDS011;18508;49.386;8.370;2023-02-23T04:18:04;69.25;;;29.60;;
31990;SDS011;18508;49.386;8.370;2023-02-23T04:20:33;64.88;;;28.35;;
31990;SDS011;18508;49.386;8.370;2023-02-23T04:23:01;62.65;;;28.83;;
31990;SDS011;18508;49.386;8.370;2023-02-23T04:25:30;66.15;;;29.17;;
31990;SDS011;18508;49.386;8.370;2023-02-23T04:27:59;71.75;;;31.02;;
31990;SDS011;18508;49.386;8.370;2023-02-23T04:30:30;66.63;;;27.70;;
31990;SDS011;18508;49.386;8.370;2023-02-23T04:32:58;68.18;;;29.88;;
31990;SDS011;18508;49.386;8.370;2023-02-23T04:35:30;75.43;;;31.20;;
31990;SDS011;18508;49.386;8.370;2023-02-23T04:38:02;66.05;;;28.95;;
31990;SDS011;18508;49.386;8.370;2023-02-23T04:40:30;69.32;;;29.85;;
31990;SDS011;18508;49.386;8.370;2023-02-23T04:42:59;65.93;;;28.67;;
31990;SDS011;18508;49.386;8.370;2023-02-23T04:45:29;72.32;;;29.42;;
31990;SDS011;18508;49.386;8.370;2023-02-23T04:47:58;72.65;;;29.75;;
31990;SDS011;18508;49.386;8.370;2023-02-23T04:50:26;62.40;;;29.10;;
31990;SDS011;18508;49.386;8.370;2023-02-23T04:52:59;65.50;;;29.88;;
31990;SDS011;18508;49.386;8.370;2023-02-23T04:55:29;69.47;;;30.35;;
31990;SDS011;18508;49.386;8.370;2023-02-23T04:57:59;71.35;;;30.55;;
31990;SDS011;18508;49.386;8.370;2023-02-23T05:00:30;61.88;;;29.92;;
31990;SDS011;18508;49.386;8.370;2023-02-23T05:02:59;70.38;;;31.02;;
31990;SDS011;18508;49.386;8.370;2023-02-23T05:05:27;68.68;;;30.75;;
31990;SDS011;18508;49.386;8.370;2023-02-23T05:08:01;66.55;;;30.42;;
31990;SDS011;18508;49.386;8.370;2023-02-23T05:10:29;73.22;;;30.85;;
31990;SDS011;18508;49.386;8.370;2023-02-23T05:12:58;71.43;;;30.15;;
31990;SDS011;18508;49.386;8.370;2023-02-23T05:15:31;71.63;;;30.50;;
31990;SDS011;18508;49.386;8.370;2023-02-23T05:18:01;72.60;;;29.70;;
31990;SDS011;18508;49.386;8.370;2023-02-23T05:20:32;72.78;;;31.48;;
31990;SDS011;18508;49.386;8.370;2023-02-23T05:23:05;76.28;;;31.92;;
31990;SDS011;18508;49.386;8.370;2023-02-23T05:25:36;82.38;;;32.17;;
31990;SDS011;18508;49.386;8.370;2023-02-23T05:28:05;71.53;;;31.90;;
31990;SDS011;18508;49.386;8.370;2023-02-23T05:30:33;68.63;;;30.65;;
31990;SDS011;18508;49.386;8.370;2023-02-23T05:33:02;66.75;;;31.42;;
31990;SDS011;18508;49.386;8.370;2023-02-23T05:35:30;67.03;;;30.40;;
31990;SDS011;18508;49.386;8.370;2023-02-23T05:37:59;70.30;;;31.55;;
31990;SDS011;18508;49.386;8.370;2023-02-23T05:40:29;69.70;;;31.63;;
31990;SDS011;18508;49.386;8.370;2023-02-23T05:42:59;69.95;;;31.50;;
31990;SDS011;18508;49.386;8.370;2023-02-23T05:45:28;72.45;;;31.48;;
31990;SDS011;18508;49.386;8.370;2023-02-23T05:48:04;74.82;;;30.88;;
31990;SDS011;18508;49.386;8.370;2023-02-23T05:50:32;67.15;;;30.33;;
31990;SDS011;18508;49.386;8.370;2023-02-23T05:53:01;68.03;;;28.60;;
31990;SDS011;18508;49.386;8.370;2023-02-23T05:55:30;73.22;;;31.98;;
31990;SDS011;18508;49.386;8.370;2023-02-23T05:57:59;73.13;;;31.63;;
31990;SDS011;18508;49.386;8.370;2023-02-23T06:00:28;71.25;;;30.55;;
31990;SDS011;18508;49.386;8.370;2023-02-23T06:02:56;68.70;;;31.77;;
31990;SDS011;18508;49.386;8.370;2023-02-23T06:05:27;78.25;;;32.70;;
31990;SDS011;18508;49.386;8.370;2023-02-23T06:07:56;78.47;;;31.95;;
31990;SDS011;18508;49.386;8.370;2023-02-23T06:10:24;70.57;;;29.88;;
31990;SDS011;18508;49.386;8.370;2023-02-23T06:12:54;72.22;;;31.05;;
31990;SDS011;18508;49.386;8.370;2023-02-23T06:15:22;70.30;;;30.88;;
31990;SDS011;18508;49.386;8.370;2023-02-23T06:17:52;73.63;;;29.85;;
31990;SDS011;18508;49.386;8.370;2023-02-23T06:20:21;67.35;;;31.30;;
31990;SDS011;18508;49.386;8.370;2023-02-23T06:22:50;72.70;;;31.33;;
31990;SDS011;18508;49.386;8.370;2023-02-23T06:25:20;70.25;;;31.15;;
31990;SDS011;18508;49.386;8.370;2023-02-23T06:27:55;64.95;;;29.70;;
31990;SDS011;18508;49.386;8.370;2023-02-23T06:30:24;70.97;;;30.77;;
31990;SDS011;18508;49.386;8.370;2023-02-23T06:32:56;72.80;;;31.80;;
31990;SDS011;18508;49.386;8.370;2023-02-23T06:35:27;68.70;;;30.20;;
31990;SDS011;18508;49.386;8.370;2023-02-23T06:37:56;64.32;;;29.30;;
31990;SDS011;18508;49.386;8.370;2023-02-23T06:40:24;67.28;;;31.48;;
31990;SDS011;18508;49.386;8.370;2023-02-23T06:42:57;70.55;;;28.63;;
31990;SDS011;18508;49.386;8.370;2023-02-23T06:45:25;73.45;;;31.38;;
31990;SDS011;18508;49.386;8.370;2023-02-23T06:47:54;73.60;;;33.45;;
31990;SDS011;18508;49.386;8.370;2023-02-23T06:50:27;72.35;;;32.45;;
31990;SDS011;18508;49.386;8.370;2023-02-23T06:52:57;67.28;;;30.17;;
31990;SDS011;18508;49.386;8.370;2023-02-23T06:55:26;66.85;;;28.77;;
31990;SDS011;18508;49.386;8.370;2023-02-23T06:57:57;66.25;;;31.65;;
31990;SDS011;18508;49.386;8.370;2023-02-23T07:00:26;71.35;;;33.85;;
31990;SDS011;18508;49.386;8.370;2023-02-23T07:02:55;75.97;;;32.10;;
31990;SDS011;18508;49.386;8.370;2023-02-23T07:05:25;66.50;;;31.48;;
31990;SDS011;18508;49.386;8.370;2023-02-23T07:07:54;70.05;;;30.83;;
31990;SDS011;18508;49.386;8.370;2023-02-23T07:10:29;64.60;;;28.00;;
31990;SDS011;18508;49.386;8.370;2023-02-23T07:12:59;59.38;;;26.67;;
31990;SDS011;18508;49.386;8.370;2023-02-23T07:15:27;59.47;;;27.98;;
31990;SDS011;18508;49.386;8.370;2023-02-23T07:17:56;58.15;;;26.80;;
31990;SDS011;18508;49.386;8.370;2023-02-23T07:20:26;59.75;;;27.23;;
31990;SDS011;18508;49.386;8.370;2023-02-23T07:22:55;59.90;;;27.15;;
31990;SDS011;18508;49.386;8.370;2023-02-23T07:25:27;59.85;;;27.08;;
31990;SDS011;18508;49.386;8.370;2023-02-23T07:27:58;57.50;;;26.05;;
31990;SDS011;18508;49.386;8.370;2023-02-23T07:30:27;57.70;;;26.13;;
31990;SDS011;18508;49.386;8.370;2023-02-23T07:32:56;53.30;;;24.77;;
31990;SDS011;18508;49.386;8.370;2023-02-23T07:35:25;53.35;;;26.45;;
31990;SDS011;18508;49.386;8.370;2023-02-23T07:37:54;53.13;;;25.60;;
31990;SDS011;18508;49.386;8.370;2023-02-23T07:40:25;53.47;;;25.83;;
31990;SDS011;18508;49.386;8.370;2023-02-23T07:42:54;57.95;;;24.67;;
31990;SDS011;18508;49.386;8.370;2023-02-23T07:45:24;54.53;;;26.25;;
31990;SDS011;18508;49.386;8.370;2023-02-23T07:47:53;53.30;;;25.52;;
31990;SDS011;18508;49.386;8.370;2023-02-23T07:50:22;58.60;;;27.15;;
31990;SDS011;18508;49.386;8.370;2023-02-23T07:52:52;48.15;;;23.48;;
31990;SDS011;18508;49.386;8.370;2023-02-23T07:55:20;54.00;;;24.20;;
31990;SDS011;18508;49.386;8.370;2023-02-23T07:57:49;51.38;;;25.33;;
31990;SDS011;18508;49.386;8.370;2023-02-23T08:00:21;53.42;;;25.08;;
31990;SDS011;18508;49.386;8.370;2023-02-23T08:02:55;55.60;;;24.80;;
31990;SDS011;18508;49.386;8.370;2023-02-23T08:05:24;50.60;;;25.08;;
31990;SDS011;18508;49.386;8.370;2023-02-23T08:07:53;50.88;;;22.58;;
31990;SDS011;18508;49.386;8.370;2023-02-23T08:10:23;47.95;;;23.95;;
31990;SDS011;18508;49.386;8.370;2023-02-23T08:12:52;50.05;;;20.75;;
31990;SDS011;18508;49.386;8.370;2023-02-23T08:15:21;44.30;;;21.58;;
31990;SDS011;18508;49.386;8.370;2023-02-23T08:17:50;48.17;;;20.33;;
31990;SDS011;18508;49.386;8.370;2023-02-23T08:20:20;41.70;;;19.92;;
31990;SDS011;18508;49.386;8.370;2023-02-23T08:22:51;41.03;;;18.75;;
31990;SDS011;18508;49.386;8.370;2023-02-23T08:25:21;38.92;;;18.05;;
31990;SDS011;18508;49.386;8.370;2023-02-23T08:27:49;36.05;;;17.27;;
31990;SDS011;18508;49.386;8.370;2023-02-23T08:30:18;33.38;;;17.60;;
31990;SDS011;18508;49.386;8.370;2023-02-23T08:32:52;33.78;;;16.95;;
31990;SDS011;18508;49.386;8.370;2023-02-23T08:35:22;31.60;;;16.25;;
31990;SDS011;18508;49.386;8.370;2023-02-23T08:37:51;28.38;;;15.68;;
31990;SDS011;18508;49.386;8.370;2023-02-23T08:40:19;32.78;;;16.70;;
31990;SDS011;18508;49.386;8.370;2023-02-23T08:42:48;31.75;;;15.65;;
31990;SDS011;18508;49.386;8.370;2023-02-23T08:45:18;31.20;;;16.23;;
31990;SDS011;18508;49.386;8.370;2023-02-23T08:47:46;30.40;;;15.43;;
31990;SDS011;18508;49.386;8.370;2023-02-23T08:50:15;25.40;;;13.90;;
31990;SDS011;18508;49.386;8.370;2023-02-23T08:52:46;31.55;;;14.60;;
31990;SDS011;18508;49.386;8.370;2023-02-23T08:55:15;24.83;;;13.05;;
31990;SDS011;18508;49.386;8.370;2023-02-23T08:57:43;25.48;;;12.95;;
31990;SDS011;18508;49.386;8.370;2023-02-23T09:00:13;25.23;;;12.30;;
31990;SDS011;18508;49.386;8.370;2023-02-23T09:02:43;27.30;;;12.68;;
31990;SDS011;18508;49.386;8.370;2023-02-23T09:05:13;23.95;;;11.98;;
31990;SDS011;18508;49.386;8.370;2023-02-23T09:07:46;26.10;;;12.98;;
31990;SDS011;18508;49.386;8.370;2023-02-23T09:10:16;25.52;;;12.73;;
31990;SDS011;18508;49.386;8.370;2023-02-23T09:12:50;20.88;;;10.77;;
31990;SDS011;18508;49.386;8.370;2023-02-23T09:15:19;24.25;;;11.85;;
31990;SDS011;18508;49.386;8.370;2023-02-23T09:17:48;24.17;;;11.50;;
31990;SDS011;18508;49.386;8.370;2023-02-23T09:20:17;23.13;;;10.65;;
31990;SDS011;18508;49.386;8.370;2023-02-23T09:22:47;21.92;;;11.32;;
31990;SDS011;18508;49.386;8.370;2023-02-23T09:25:16;25.35;;;10.73;;
31990;SDS011;18508;49.386;8.370;2023-02-23T09:27:48;21.55;;;11.10;;
31990;SDS011;18508;49.386;8.370;2023-02-23T09:30:17;21.83;;;10.50;;
31990;SDS011;18508;49.386;8.370;2023-02-23T09:32:48;24.13;;;11.82;;
31990;SDS011;18508;49.386;8.370;2023-02-23T09:35:20;24.43;;;11.73;;
31990;SDS011;18508;49.386;8.370;2023-02-23T09:37:52;23.48;;;12.10;;
31990;SDS011;18508;49.386;8.370;2023-02-23T09:40:23;23.92;;;11.07;;
31990;SDS011;18508;49.386;8.370;2023-02-23T09:42:58;25.75;;;12.13;;
31990;SDS011;18508;49.386;8.370;2023-02-23T09:45:32;25.67;;;12.25;;
31990;SDS011;18508;49.386;8.370;2023-02-23T09:48:13;23.92;;;10.98;;
31990;SDS011;18508;49.386;8.370;2023-02-23T09:50:49;24.30;;;12.05;;
31990;SDS011;18508;49.386;8.370;2023-02-23T09:53:25;29.20;;;11.70;;
31990;SDS011;18508;49.386;8.370;2023-02-23T09:55:59;26.02;;;11.57;;
31990;SDS011;18508;49.386;8.370;2023-02-23T09:58:29;26.00;;;11.45;;
31990;SDS011;18508;49.386;8.370;2023-02-23T10:01:10;28.00;;;10.60;;
31990;SDS011;18508;49.386;8.370;2023-02-23T10:04:06;23.90;;;10.13;;
31990;SDS011;18508;49.386;8.370;2023-02-23T10:06:47;17.90;;;9.98;;
31990;SDS011;18508;49.386;8.370;2023-02-23T10:09:23;21.58;;;10.43;;
31990;SDS011;18508;49.386;8.370;2023-02-23T10:12:00;18.77;;;9.55;;
31990;SDS011;18508;49.386;8.370;2023-02-23T10:14:41;20.95;;;9.73;;
31990;SDS011;18508;49.386;8.370;2023-02-23T10:17:26;20.38;;;9.77;;
31990;SDS011;18508;49.386;8.370;2023-02-23T10:20:06;20.63;;;9.48;;
31990;SDS011;18508;49.386;8.370;2023-02-23T10:22:45;22.73;;;10.13;;
31990;SDS011;18508;49.386;8.370;2023-02-23T10:25:17;16.58;;;8.90;;
31990;SDS011;18508;49.386;8.370;2023-02-23T10:27:52;17.52;;;8.85;;
31990;SDS011;18508;49.386;8.370;2023-02-23T10:30:23;21.02;;;9.05;;
31990;SDS011;18508;49.386;8.370;2023-02-23T10:32:58;21.43;;;9.20;;
31990;SDS011;18508;49.386;8.370;2023-02-23T10:35:31;20.95;;;9.30;;
31990;SDS011;18508;49.386;8.370;2023-02-23T10:38:00;18.45;;;8.77;;
31990;SDS011;18508;49.386;8.370;2023-02-23T10:40:33;17.95;;;8.23;;
31990;SDS011;18508;49.386;8.370;2023-02-23T10:43:02;16.77;;;9.02;;
31990;SDS011;18508;49.386;8.370;2023-02-23T10:45:33;19.63;;;10.30;;
31990;SDS011;18508;49.386;8.370;2023-02-23T10:48:12;17.95;;;8.35;;
31990;SDS011;18508;49.386;8.370;2023-02-23T10:50:43;18.60;;;9.27;;
31990;SDS011;18508;49.386;8.370;2023-02-23T10:53:16;23.33;;;10.85;;
31990;SDS011;18508;49.386;8.370;2023-02-23T10:56:01;19.02;;;9.65;;
31990;SDS011;18508;49.386;8.370;2023-02-23T10:58:38;16.63;;;8.43;;
31990;SDS011;18508;49.386;8.370;2023-02-23T11:01:08;15.43;;;8.02;;
31990;SDS011;18508;49.386;8.370;2023-02-23T11:03:38;19.05;;;8.77;;
31990;SDS011;18508;49.386;8.370;2023-02-23T11:06:26;18.23;;;8.93;;
31990;SDS011;18508;49.386;8.370;2023-02-23T11:08:56;17.02;;;9.32;;
31990;SDS011;18508;49.386;8.370;2023-02-23T11:11:29;19.45;;;9.68;;
31990;SDS011;18508;49.386;8.370;2023-02-23T11:13:57;16.85;;;8.38;;
31990;SDS011;18508;49.386;8.370;2023-02-23T11:16:27;16.20;;;8.32;;
31990;SDS011;18508;49.386;8.370;2023-02-23T11:18:57;20.63;;;9.23;;
31990;SDS011;18508;49.386;8.370;2023-02-23T11:21:28;17.70;;;9.00;;
31990;SDS011;18508;49.386;8.370;2023-02-23T11:24:00;16.27;;;7.60;;
31990;SDS011;18508;49.386;8.370;2023-02-23T11:26:37;19.00;;;8.23;;
31990;SDS011;18508;49.386;8.370;2023-02-23T11:36:56;13.50;;;6.55;;
31990;SDS011;18508;49.386;8.370;2023-02-23T11:39:27;12.35;;;6.57;;
31990;SDS011;18508;49.386;8.370;2023-02-23T11:42:05;16.85;;;7.30;;
31990;SDS011;18508;49.386;8.370;2023-02-23T11:44:41;14.57;;;7.45;;
31990;SDS011;18508;49.386;8.370;2023-02-23T11:47:14;19.77;;;8.52;;
31990;SDS011;18508;49.386;8.370;2023-02-23T11:49:45;16.65;;;8.45;;
31990;SDS011;18508;49.386;8.370;2023-02-23T11:52:16;14.60;;;7.70;;
31990;SDS011;18508;49.386;8.370;2023-02-23T11:54:51;16.08;;;8.38;;
31990;SDS011;18508;49.386;8.370;2023-02-23T11:57:27;16.40;;;7.72;;
31990;SDS011;18508;49.386;8.370;2023-02-23T12:00:00;13.80;;;7.47;;
31990;SDS011;18508;49.386;8.370;2023-02-23T12:02:43;18.83;;;8.43;;
31990;SDS011;18508;49.386;8.370;2023-02-23T12:05:19;15.38;;;7.40;;
31990;SDS011;18508;49.386;8.370;2023-02-23T12:07:50;12.63;;;6.50;;
31990;SDS011;18508;49.386;8.370;2023-02-23T12:10:25;15.73;;;7.75;;
31990;SDS011;18508;49.386;8.370;2023-02-23T12:12:59;17.15;;;7.55;;
31990;SDS011;18508;49.386;8.370;2023-02-23T12:15:39;15.70;;;7.20;;
31990;SDS011;18508;49.386;8.370;2023-02-23T12:18:22;23.45;;;9.07;;
31990;SDS011;18508;49.386;8.370;2023-02-23T12:21:07;16.95;;;7.78;;
31990;SDS011;18508;49.386;8.370;2023-02-23T12:23:42;17.42;;;7.55;;
31990;SDS011;18508;49.386;8.370;2023-02-23T12:26:17;18.50;;;8.40;;
31990;SDS011;18508;49.386;8.370;2023-02-23T12:28:51;15.57;;;7.22;;
31990;SDS011;18508;49.386;8.370;2023-02-23T12:31:27;15.57;;;7.50;;
31990;SDS011;18508;49.386;8.370;2023-02-23T12:34:03;17.40;;;7.57;;
31990;SDS011;18508;49.386;8.370;2023-02-23T12:36:43;17.00;;;8.63;;
31990;SDS011;18508;49.386;8.370;2023-02-23T12:39:19;18.65;;;7.97;;
31990;SDS011;18508;49.386;8.370;2023-02-23T12:41:54;13.07;;;7.68;;
31990;SDS011;18508;49.386;8.370;2023-02-23T12:44:31;16.33;;;8.10;;
31990;SDS011;18508;49.386;8.370;2023-02-23T12:47:06;19.75;;;8.13;;
31990;SDS011;18508;49.386;8.370;2023-02-23T12:49:43;16.95;;;8.40;;
31990;SDS011;18508;49.386;8.370;2023-02-23T12:52:18;16.02;;;7.68;;
31990;SDS011;18508;49.386;8.370;2023-02-23T12:54:51;16.95;;;8.35;;
31990;SDS011;18508;49.386;8.370;2023-02-23T12:57:22;15.48;;;7.90;;
31990;SDS011;18508;49.386;8.370;2023-02-23T13:00:06;20.80;;;8.63;;
31990;SDS011;18508;49.386;8.370;2023-02-23T13:03:05;15.48;;;7.43;;
31990;SDS011;18508;49.386;8.370;2023-02-23T13:05:55;14.40;;;7.57;;
31990;SDS011;18508;49.386;8.370;2023-02-23T13:08:38;16.90;;;7.97;;
31990;SDS011;18508;49.386;8.370;2023-02-23T13:11:22;15.10;;;8.15;;
31990;SDS011;18508;49.386;8.370;2023-02-23T13:14:08;21.75;;;10.30;;
31990;SDS011;18508;49.386;8.370;2023-02-23T13:16:48;19.65;;;10.05;;
31990;SDS011;18508;49.386;8.370;2023-02-23T13:19:22;20.40;;;10.10;;
31990;SDS011;18508;49.386;8.370;2023-02-23T13:21:57;23.10;;;11.50;;
31990;SDS011;18508;49.386;8.370;2023-02-23T13:24:36;22.17;;;11.15;;
31990;SDS011;18508;49.386;8.370;2023-02-23T13:27:11;21.63;;;10.38;;
31990;SDS011;18508;49.386;8.370;2023-02-23T13:29:46;24.17;;;11.05;;
31990;SDS011;18508;49.386;8.370;2023-02-23T13:32:23;21.65;;;10.65;;
31990;SDS011;18508;49.386;8.370;2023-02-23T13:34:58;20.48;;;10.93;;
31990;SDS011;18508;49.386;8.370;2023-02-23T13:37:29;25.42;;;11.85;;
31990;SDS011;18508;49.386;8.370;2023-02-23T13:40:06;20.13;;;11.25;;
31990;SDS011;18508;49.386;8.370;2023-02-23T13:42:47;22.60;;;11.73;;
31990;SDS011;18508;49.386;8.370;2023-02-23T13:45:29;22.00;;;11.48;;
31990;SDS011;18508;49.386;8.370;2023-02-23T13:48:23;20.42;;;11.48;;
31990;SDS011;18508;49.386;8.370;2023-02-23T13:51:00;25.33;;;12.10;;
31990;SDS011;18508;49.386;8.370;2023-02-23T13:53:37;23.05;;;11.48;;
31990;SDS011;18508;49.386;8.370;2023-02-23T13:56:13;22.00;;;11.30;;
31990;SDS011;18508;49.386;8.370;2023-02-23T13:58:44;27.73;;;11.50;;
31990;SDS011;18508;49.386;8.370;2023-02-23T14:01:15;25.05;;;12.80;;
31990;SDS011;18508;49.386;8.370;2023-02-23T14:03:52;24.33;;;11.10;;
31990;SDS011;18508;49.386;8.370;2023-02-23T14:06:23;20.70;;;10.95;;
31990;SDS011;18508;49.386;8.370;2023-02-23T14:08:55;27.48;;;11.45;;
31990;SDS011;18508;49.386;8.370;2023-02-23T14:11:37;23.25;;;11.60;;
31990;SDS011;18508;49.386;8.370;2023-02-23T14:14:11;22.30;;;10.90;;
31990;SDS011;18508;49.386;8.370;2023-02-23T14:16:42;22.10;;;10.88;;
31990;SDS011;18508;49.386;8.370;2023-02-23T14:19:29;23.90;;;12.15;;
31990;SDS011;18508;49.386;8.370;2023-02-23T14:22:03;24.40;;;12.65;;
31990;SDS011;18508;49.386;8.370;2023-02-23T14:24:35;29.67;;;11.85;;
31990;SDS011;18508;49.386;8.370;2023-02-23T14:30:21;23.38;;;10.23;;
31990;SDS011;18508;49.386;8.370;2023-02-23T14:32:53;21.85;;;10.23;;
31990;SDS011;18508;49.386;8.370;2023-02-23T14:35:48;21.58;;;10.48;;
31990;SDS011;18508;49.386;8.370;2023-02-23T14:38:28;20.45;;;9.20;;
31990;SDS011;18508;49.386;8.370;2023-02-23T14:41:13;15.75;;;9.27;;
31990;SDS011;18508;49.386;8.370;2023-02-23T14:43:42;20.00;;;8.68;;
31990;SDS011;18508;49.386;8.370;2023-02-23T14:46:13;18.98;;;8.88;;
31990;SDS011;18508;49.386;8.370;2023-02-23T14:48:56;19.00;;;9.48;;
31990;SDS011;18508;49.386;8.370;2023-02-23T14:51:35;21.95;;;9.10;;
31990;SDS011;18508;49.386;8.370;2023-02-23T14:54:11;18.98;;;10.35;;
31990;SDS011;18508;49.386;8.370;2023-02-23T14:56:49;17.38;;;8.70;;
31990;SDS011;18508;49.386;8.370;2023-02-23T14:59:23;21.25;;;9.30;;
31990;SDS011;18508;49.386;8.370;2023-02-23T15:01:54;23.55;;;9.98;;
31990;SDS011;18508;49.386;8.370;2023-02-23T15:04:28;17.25;;;8.43;;
31990;SDS011;18508;49.386;8.370;2023-02-23T15:07:05;15.18;;;7.82;;
31990;SDS011;18508;49.386;8.370;2023-02-23T15:09:35;16.33;;;8.20;;
31990;SDS011;18508;49.386;8.370;2023-02-23T15:12:13;19.35;;;7.93;;
31990;SDS011;18508;49.386;8.370;2023-02-23T15:14:44;14.90;;;7.60;;
31990;SDS011;18508;49.386;8.370;2023-02-23T15:17:16;15.07;;;8.25;;
31990;SDS011;18508;49.386;8.370;2023-02-23T15:19:47;16.45;;;6.93;;
31990;SDS011;18508;49.386;8.370;2023-02-23T15:22:40;14.15;;;6.25;;
31990;SDS011;18508;49.386;8.370;2023-02-23T15:25:12;15.80;;;6.80;;
31990;SDS011;18508;49.386;8.370;2023-02-23T15:27:43;14.02;;;5.88;;